createdAt,value
2018-07-14T00:02:55.000Z,41.203
2018-07-14T00:12:55.000Z,41.332
2018-07-14T00:22:55.000Z,41.383
2018-07-14T00:32:55.000Z,41.492
2018-07-14T00:42:55.000Z,41.542
2018-07-14T00:52:55.000Z,41.695
2018-07-14T01:02:55.000Z,41.789
2018-07-14T01:12:55.000Z,41.907
2018-07-14T01:22:55.000Z,42.013
2018-07-14T01:32:55.000Z,42.108
2018-07-14T01:42:55.000Z,42.151
2018-07-14T01:52:55.000Z,42.201
2018-07-14T02:02:55.000Z,42.274
2018-07-14T02:12:55.000Z,42.38
2018-07-14T02:22:55.000Z,42.377
2018-07-14T02:32:55.000Z,42.474
2018-07-14T02:42:55.000Z,42.526
2018-07-14T02:52:55.000Z,42.577
2018-07-14T03:02:55.000Z,42.695
2018-07-14T03:12:55.000Z,42.604
2018-07-14T03:22:55.000Z,42.635
2018-07-14T03:32:55.000Z,42.741
2018-07-14T03:42:55.000Z,42.673
2018-07-14T03:52:55.000Z,42.725
2018-07-14T04:02:55.000Z,42.8
2018-07-14T04:12:55.000Z,42.786
2018-07-14T04:22:55.000Z,42.807
2018-07-14T04:32:55.000Z,42.762
2018-07-14T04:42:55.000Z,42.771
2018-07-14T04:52:55.000Z,42.923
2018-07-14T05:02:55.000Z,42.609
2018-07-14T05:12:55.000Z,42.51
2018-07-14T05:22:55.000Z,42.36
2018-07-14T05:32:55.000Z,42.316
2018-07-14T05:42:56.000Z,42.275
2018-07-14T05:52:56.000Z,42.253
2018-07-14T06:02:56.000Z,42.408
2018-07-14T06:12:56.000Z,42.148
2018-07-14T06:22:56.000Z,42.181
2018-07-14T06:32:56.000Z,41.978
2018-07-14T06:42:56.000Z,41.958
2018-07-14T06:52:56.000Z,41.97
2018-07-14T07:02:56.000Z,41.963
2018-07-14T07:12:56.000Z,41.947
2018-07-14T07:22:56.000Z,41.963
2018-07-14T07:32:56.000Z,42.121
2018-07-14T07:42:56.000Z,41.985
2018-07-14T07:52:56.000Z,41.361
2018-07-14T08:02:56.000Z,41.171
2018-07-14T08:12:56.000Z,40.906
2018-07-14T08:22:56.000Z,41.075
2018-07-14T08:32:56.000Z,40.647
2018-07-14T08:42:56.000Z,40.532
2018-07-14T08:52:56.000Z,40.487
2018-07-14T09:02:58.000Z,40.177
2018-07-14T09:12:56.000Z,40.75
2018-07-14T09:22:56.000Z,39.572
2018-07-14T09:32:56.000Z,39.701
2018-07-14T09:42:56.000Z,38.95
2018-07-14T09:52:56.000Z,39.329
2018-07-14T10:02:56.000Z,38.695
2018-07-14T10:12:56.000Z,38.355
2018-07-14T10:22:56.000Z,38.04
2018-07-14T10:32:56.000Z,38.414
2018-07-14T10:42:56.000Z,38.436
2018-07-14T10:52:56.000Z,38.07
2018-07-14T11:02:56.000Z,37.73
2018-07-14T11:12:56.000Z,37.223
2018-07-14T11:22:56.000Z,37.649
2018-07-14T11:32:56.000Z,37.852
2018-07-14T11:52:56.000Z,37.333
2018-07-14T12:02:56.000Z,37.67
2018-07-14T12:22:56.000Z,37.378
2018-07-14T12:32:56.000Z,36.954
2018-07-14T12:42:56.000Z,36.739
2018-07-14T12:52:56.000Z,36.262
2018-07-14T13:02:56.000Z,36.521
2018-07-14T13:12:56.000Z,37.226
2018-07-14T13:22:56.000Z,36.432
2018-07-14T13:32:56.000Z,36.111
2018-07-14T13:42:56.000Z,36.271
2018-07-14T13:52:56.000Z,35.76
2018-07-14T14:02:56.000Z,35.536
2018-07-14T14:12:57.000Z,35.484
2018-07-14T14:22:57.000Z,35.583
2018-07-14T14:32:57.000Z,34.884
2018-07-14T14:42:57.000Z,34.67
2018-07-14T14:52:57.000Z,34.603
2018-07-14T15:02:58.000Z,34.315
2018-07-14T15:12:57.000Z,34.15
2018-07-14T15:22:57.000Z,34.473
2018-07-14T15:32:57.000Z,34.951
2018-07-14T15:42:57.000Z,34.102
2018-07-14T15:52:57.000Z,33.377
2018-07-14T16:02:57.000Z,33.179
2018-07-14T16:12:57.000Z,34.369
2018-07-14T16:22:57.000Z,34.956
2018-07-14T16:32:57.000Z,34
2018-07-14T16:42:57.000Z,33.254
2018-07-14T16:53:01.000Z,33.621
2018-07-14T17:02:57.000Z,33.643
2018-07-14T17:12:57.000Z,33.11
2018-07-14T17:22:57.000Z,33.463
2018-07-14T17:32:57.000Z,33.381
2018-07-14T17:42:57.000Z,32.885
2018-07-14T17:52:58.000Z,32.614
2018-07-14T18:02:57.000Z,32.852
2018-07-14T18:12:57.000Z,33.016
2018-07-14T18:22:57.000Z,32.876
2018-07-14T18:32:57.000Z,32.907
2018-07-14T18:42:57.000Z,33.602
2018-07-14T18:52:57.000Z,34.188
2018-07-14T19:02:57.000Z,34.363
2018-07-14T19:12:57.000Z,34.168
2018-07-14T19:22:57.000Z,34.681
2018-07-14T19:32:57.000Z,35.112
2018-07-14T19:42:57.000Z,35.398
2018-07-14T19:52:57.000Z,35.529
2018-07-14T20:02:57.000Z,35.554
2018-07-14T20:12:57.000Z,35.786
2018-07-14T20:22:57.000Z,35.992
2018-07-14T20:32:57.000Z,36.035
2018-07-14T20:42:58.000Z,36.014
2018-07-14T20:52:57.000Z,36.072
2018-07-14T21:02:57.000Z,36.311
2018-07-14T21:12:57.000Z,36.285
2018-07-14T21:22:57.000Z,36.427
2018-07-14T21:32:57.000Z,36.557
2018-07-14T21:42:57.000Z,36.545
2018-07-14T21:52:57.000Z,36.685
2018-07-14T22:02:58.000Z,36.672
2018-07-14T22:12:58.000Z,36.636
2018-07-14T22:22:58.000Z,36.801
2018-07-14T22:32:58.000Z,36.824
2018-07-14T22:42:58.000Z,36.924
2018-07-14T22:52:58.000Z,37.276
2018-07-14T23:02:58.000Z,37.251
2018-07-14T23:12:58.000Z,37.37
2018-07-14T23:22:58.000Z,37.477
2018-07-14T23:32:58.000Z,37.563
2018-07-14T23:42:58.000Z,37.637
2018-07-14T23:52:58.000Z,37.712
